Time;durP1;ratioP1;P1;durP2;ratioP2;P2;SDS_P1;SDS_P2;PMS_P1;PMS_P2;Temp;Humidity;BMP_temperature;BMP_pressure;BME280_temperature;BME280_humidity;BME280_pressure;Samples;Min_cycle;Max_cycle;Signal;HPM_P1;HPM_P2
2023/03/21 00:01:03;;;;;;;23.50;18.25;;;;;;;9.81;100.00;101576.91;5054667;28;20116;-43
2023/03/21 00:03:29;;;;;;;25.08;18.55;;;;;;;9.79;100.00;101579.13;5054648;28;20051;-44
2023/03/21 00:05:55;;;;;;;24.63;18.35;;;;;;;9.80;100.00;101574.41;5054658;28;20161;-45
2023/03/21 00:08:23;;;;;;;26.00;18.58;;;;;;;9.78;100.00;101571.94;5055139;28;20574;-43
2023/03/21 00:10:57;;;;;;;25.25;18.65;;;;;;;9.74;100.00;101562.56;5053442;28;20040;-42
2023/03/21 00:13:25;;;;;;;25.40;18.48;;;;;;;9.77;100.00;101573.06;5049595;28;20498;-44
2023/03/21 00:15:53;;;;;;;25.63;18.50;;;;;;;9.78;100.00;101571.09;5054992;28;20031;-43
2023/03/21 00:18:21;;;;;;;27.40;19.20;;;;;;;9.78;100.00;101560.03;5054764;28;20025;-42
2023/03/21 00:20:57;;;;;;;27.42;18.70;;;;;;;9.70;100.00;101555.97;5054693;28;20052;-43
2023/03/21 00:23:23;;;;;;;28.13;18.70;;;;;;;9.73;100.00;101554.56;5054682;28;20036;-43
2023/03/21 00:25:48;;;;;;;26.80;18.38;;;;;;;9.74;100.00;101561.75;5054707;28;20025;-43
2023/03/21 00:28:13;;;;;;;26.77;18.83;;;;;;;9.75;100.00;101553.16;5054525;28;20495;-42
2023/03/21 00:30:39;;;;;;;26.05;18.50;;;;;;;9.71;100.00;101554.84;5054413;28;20111;-43
2023/03/21 00:33:04;;;;;;;30.08;19.50;;;;;;;9.65;100.00;101545.75;5053386;28;20403;-43
2023/03/21 00:35:30;;;;;;;27.42;19.02;;;;;;;9.62;100.00;101546.31;5053167;28;20205;-44
2023/03/21 00:37:55;;;;;;;26.40;19.02;;;;;;;9.59;100.00;101549.63;5052213;28;20036;-43
2023/03/21 00:40:20;;;;;;;25.60;19.20;;;;;;;9.61;100.00;101543.84;5054313;28;20064;-43
2023/03/21 00:42:46;;;;;;;26.75;19.17;;;;;;;9.61;100.00;101549.38;5053958;28;20383;-42
2023/03/21 00:45:11;;;;;;;26.35;19.05;;;;;;;9.58;100.00;101548.00;5053842;28;20098;-43
2023/03/21 00:47:36;;;;;;;25.85;18.70;;;;;;;9.57;100.00;101543.56;5054196;28;20470;-43
2023/03/21 00:50:03;;;;;;;25.60;18.77;;;;;;;9.55;100.00;101537.50;5054128;28;20477;-43
2023/03/21 00:52:29;;;;;;;27.10;18.70;;;;;;;9.54;100.00;101533.09;5054007;28;20036;-44
2023/03/21 00:54:54;;;;;;;26.05;18.52;;;;;;;9.58;100.00;101533.34;5053700;28;20025;-43
2023/03/21 00:57:19;;;;;;;26.92;18.25;;;;;;;9.59;100.00;101522.00;5053643;28;20032;-44
2023/03/21 00:59:45;;;;;;;25.10;19.55;;;;;;;9.58;100.00;101519.53;5053592;28;20388;-45
2023/03/21 01:02:13;;;;;;;25.90;20.00;;;;;;;9.58;100.00;101523.13;5053790;28;20025;-43
2023/03/21 01:04:39;;;;;;;27.70;18.25;;;;;;;9.57;100.00;101515.97;5052787;28;20037;-44
2023/03/21 01:07:04;;;;;;;26.52;19.40;;;;;;;9.57;100.00;101510.44;5050493;28;20460;-42
2023/03/21 01:09:29;;;;;;;25.10;18.67;;;;;;;9.55;100.00;101511.78;5048510;28;20546;-43
2023/03/21 01:11:55;;;;;;;27.40;19.30;;;;;;;9.55;100.00;101509.88;5053502;28;20067;-43
2023/03/21 01:14:22;;;;;;;26.95;18.63;;;;;;;9.52;100.00;101503.00;5053434;28;20025;-42
2023/03/21 01:16:49;;;;;;;28.23;17.90;;;;;;;9.56;100.00;101502.41;5053631;28;20449;-43
2023/03/21 01:19:17;;;;;;;24.42;17.60;;;;;;;9.55;100.00;101498.00;5053603;28;20142;-42
2023/03/21 01:21:42;;;;;;;26.95;17.70;;;;;;;9.56;100.00;101494.13;5053434;28;20453;-43
2023/03/21 01:24:08;;;;;;;27.15;17.45;;;;;;;9.55;100.00;101496.06;5053396;28;20096;-43
2023/03/21 01:26:33;;;;;;;25.48;18.27;;;;;;;9.57;100.00;101493.00;5053266;28;20052;-44
2023/03/21 01:28:59;;;;;;;24.95;17.95;;;;;;;9.59;100.00;101488.03;5053408;28;20405;-44
2023/03/21 01:31:24;;;;;;;24.40;17.85;;;;;;;9.57;100.00;101484.72;5052871;28;20033;-45
2023/03/21 01:33:50;;;;;;;26.60;17.27;;;;;;;9.58;100.00;101478.94;5052698;28;20021;-43
2023/03/21 01:36:21;;;;;;;25.42;17.27;;;;;;;9.59;100.00;101483.31;5052465;28;20454;-44
2023/03/21 01:38:47;;;;;;;23.73;17.13;;;;;;;9.59;100.00;101483.31;5052553;28;20108;-44
2023/03/21 01:41:34;;;;;;;27.20;17.55;;;;;;;9.62;100.00;101474.47;5053215;28;20465;-44
2023/03/21 01:43:59;;;;;;;28.17;17.38;;;;;;;9.60;100.00;101470.34;5052869;28;20510;-43
2023/03/21 01:46:36;;;;;;;25.02;16.75;;;;;;;9.61;100.00;101464.53;5052860;28;20025;-43
2023/03/21 01:49:09;;;;;;;25.13;17.05;;;;;;;9.62;100.00;101465.38;5052864;28;20064;-43
2023/03/21 01:51:40;;;;;;;26.35;17.90;;;;;;;9.64;100.00;101468.66;5052872;28;20396;-44
2023/03/21 01:54:13;;;;;;;26.05;17.27;;;;;;;9.63;100.00;101459.56;5053029;28;20025;-44
2023/03/21 01:56:39;;;;;;;24.27;16.77;;;;;;;9.67;100.00;101462.56;5053096;28;20029;-44
2023/03/21 01:59:12;;;;;;;25.50;16.80;;;;;;;9.66;100.00;101460.91;5052682;28;20646;-43
2023/03/21 02:01:41;;;;;;;23.73;17.42;;;;;;;9.68;100.00;101448.47;5052817;28;20032;-43
2023/03/21 02:04:07;;;;;;;23.38;16.73;;;;;;;9.65;100.00;101450.97;5045313;28;20090;-44
2023/03/21 02:06:45;;;;;;;26.10;17.15;;;;;;;9.67;100.00;101455.13;5051335;28;20029;-44
2023/03/21 02:09:15;;;;;;;23.77;16.98;;;;;;;9.63;100.00;101436.66;5052175;28;20491;-43
2023/03/21 02:11:45;;;;;;;23.90;16.77;;;;;;;9.69;100.00;101443.78;5052571;28;20491;-43
2023/03/21 02:14:14;;;;;;;24.20;17.55;;;;;;;9.68;100.00;101437.41;5052611;28;20113;-43
2023/03/21 02:16:46;;;;;;;24.55;17.65;;;;;;;9.72;100.00;101446.00;5051744;28;20472;-44
2023/03/21 02:19:39;;;;;;;24.05;16.60;;;;;;;9.77;100.00;101439.59;5052546;28;20109;-43
2023/03/21 02:22:36;;;;;;;26.50;16.85;;;;;;;9.75;100.00;101430.78;5052310;28;20512;-43
2023/03/21 02:25:49;;;;;;;24.85;16.50;;;;;;;9.80;100.00;101431.56;5051952;28;20123;-43
2023/03/21 02:28:30;;;;;;;24.20;17.05;;;;;;;9.75;100.00;101417.75;5051789;28;20021;-43
2023/03/21 02:30:58;;;;;;;24.33;16.33;;;;;;;9.80;100.00;101422.44;5052231;28;20029;-43
2023/03/21 02:33:45;;;;;;;24.33;15.98;;;;;;;9.81;100.00;101427.69;5051663;28;20171;-44
2023/03/21 02:36:36;;;;;;;23.98;16.27;;;;;;;9.82;100.00;101421.03;5051431;28;20068;-45
2023/03/21 02:39:10;;;;;;;24.65;15.90;;;;;;;9.77;100.00;101407.25;5050629;28;20495;-44
2023/03/21 02:41:47;;;;;;;23.17;16.13;;;;;;;9.78;100.00;101417.19;5051246;28;20309;-47
2023/03/21 02:44:42;;;;;;;25.55;15.85;;;;;;;9.81;100.00;101415.78;5051927;28;20033;-45
2023/03/21 02:47:12;;;;;;;26.08;16.15;;;;;;;9.80;100.00;101411.38;5050673;28;20099;-43
2023/03/21 02:49:49;;;;;;;25.08;16.02;;;;;;;9.81;100.00;101418.56;5051879;28;20029;-44
2023/03/21 02:52:19;;;;;;;23.95;16.38;;;;;;;9.79;100.00;101421.63;5051957;28;20369;-45
2023/03/21 02:54:48;;;;;;;23.38;16.60;;;;;;;9.77;100.00;101407.25;5051947;28;20031;-47
2023/03/21 02:57:17;;;;;;;24.75;16.23;;;;;;;9.78;100.00;101408.91;5051858;28;20557;-44
2023/03/21 02:59:43;;;;;;;23.63;16.58;;;;;;;9.78;100.00;101406.16;5048308;28;20112;-42
2023/03/21 03:02:09;;;;;;;26.70;17.02;;;;;;;9.80;100.00;101403.09;5048165;28;20036;-44
2023/03/21 03:04:34;;;;;;;23.90;16.65;;;;;;;9.81;100.00;101401.97;5051245;28;20376;-43
2023/03/21 03:07:09;;;;;;;23.45;16.80;;;;;;;9.83;100.00;101403.34;5051567;28;20072;-44
2023/03/21 03:09:37;;;;;;;24.50;15.73;;;;;;;9.83;100.00;101403.34;5051573;28;20036;-46
2023/03/21 03:12:32;;;;;;;23.67;15.55;;;;;;;9.86;100.00;101393.66;5051648;28;20585;-46
2023/03/21 03:15:16;;;;;;;24.10;15.85;;;;;;;9.84;100.00;101398.66;5051325;28;20115;-44
2023/03/21 03:18:01;;;;;;;23.30;15.80;;;;;;;9.86;100.00;101401.13;5050465;28;20041;-44
2023/03/21 03:20:46;;;;;;;24.90;16.23;;;;;;;9.79;100.00;101382.94;5050130;28;20079;-45
2023/03/21 03:23:37;;;;;;;24.20;16.15;;;;;;;9.84;100.00;101387.59;5049427;28;20446;-44
2023/03/21 03:26:08;;;;;;;24.38;16.45;;;;;;;9.80;100.00;101384.59;5051139;28;20056;-45
2023/03/21 03:28:40;;;;;;;23.48;16.00;;;;;;;9.75;100.00;101379.09;5056372;28;20059;-45
2023/03/21 03:31:11;;;;;;;24.73;16.20;;;;;;;9.77;100.00;101385.16;5057490;28;20033;-45
2023/03/21 03:33:42;;;;;;;23.45;16.23;;;;;;;9.78;100.00;101372.16;5056048;28;20096;-44
2023/03/21 03:36:14;;;;;;;26.27;19.40;;;;;;;9.74;100.00;101373.84;5057731;28;20021;-44
2023/03/21 03:38:41;;;;;;;24.60;16.90;;;;;;;9.76;100.00;101377.16;5057882;28;20391;-46
2023/03/21 03:41:17;;;;;;;24.45;16.55;;;;;;;9.73;100.00;101370.25;5057460;28;20025;-45
2023/03/21 03:43:47;;;;;;;23.50;16.23;;;;;;;9.73;100.00;101370.25;5058082;28;20108;-44
2023/03/21 03:46:21;;;;;;;25.10;16.73;;;;;;;9.72;100.00;101363.09;5056868;28;20048;-45
2023/03/21 03:48:49;;;;;;;;;;;;;;;9.86;100.00;101373.47;5057959;28;20052;-45
2023/03/21 03:51:22;;;;;;;25.52;16.63;;;;;;;9.79;100.00;101365.50;5058087;28;19913;-44
2023/03/21 03:53:58;;;;;;;22.85;16.20;;;;;;;9.80;100.00;101369.94;5056825;28;20040;-44
2023/03/21 03:56:25;;;;;;;23.63;15.48;;;;;;;9.79;100.00;101358.06;5050568;28;20096;-44
2023/03/21 03:58:50;;;;;;;23.50;16.88;;;;;;;9.79;100.00;101363.59;5058029;28;20037;-43
2023/03/21 04:01:16;;;;;;;24.80;16.65;;;;;;;9.78;100.00;101356.41;5057818;28;20033;-43
2023/03/21 04:03:46;;;;;;;21.80;16.02;;;;;;;9.77;100.00;101356.72;5057896;28;20040;-43
2023/03/21 04:06:11;;;;;;;22.02;15.95;;;;;;;9.78;100.00;101359.19;5057748;28;20472;-43
2023/03/21 04:08:36;;;;;;;24.45;16.65;;;;;;;9.81;100.00;101358.59;5058058;28;20037;-44
2023/03/21 04:11:02;;;;;;;23.77;16.27;;;;;;;9.82;100.00;101359.41;5057778;28;20483;-43
2023/03/21 04:13:27;;;;;;;23.77;15.75;;;;;;;9.81;100.00;101360.53;5057863;28;20112;-44
2023/03/21 04:15:52;;;;;;;23.25;15.90;;;;;;;9.79;100.00;101351.69;5057731;28;20025;-43
2023/03/21 04:18:18;;;;;;;23.50;15.57;;;;;;;9.77;100.00;101354.75;5057682;28;20025;-44
2023/03/21 04:20:43;;;;;;;25.13;16.50;;;;;;;9.79;100.00;101360.00;5057128;28;20136;-44
2023/03/21 04:23:10;;;;;;;25.02;16.50;;;;;;;9.78;100.00;101352.81;5057817;28;20024;-44
2023/03/21 04:25:36;;;;;;;23.75;16.60;;;;;;;9.78;100.00;101350.88;5056413;28;20036;-44
2023/03/21 04:28:02;;;;;;;24.92;16.85;;;;;;;9.78;100.00;101347.28;5057564;28;20110;-43
2023/03/21 04:30:27;;;;;;;24.45;17.25;;;;;;;9.78;100.00;101344.50;5057650;28;20422;-43
2023/03/21 04:32:55;;;;;;;25.00;17.05;;;;;;;9.78;100.00;101337.06;5056736;28;20029;-43
2023/03/21 04:35:22;;;;;;;27.42;19.00;;;;;;;9.73;100.00;101328.81;5056896;28;20060;-44
2023/03/21 04:37:48;;;;;;;24.65;17.08;;;;;;;9.74;100.00;101330.47;5056552;28;20040;-44
2023/03/21 04:40:16;;;;;;;24.80;17.23;;;;;;;9.77;100.00;101335.41;5053749;28;20392;-43
2023/03/21 04:42:43;;;;;;;24.77;17.40;;;;;;;9.78;100.00;101334.31;5053827;28;20471;-43
2023/03/21 04:45:08;;;;;;;25.23;17.25;;;;;;;9.80;100.00;101336.78;5053809;28;20350;-43
2023/03/21 04:47:34;;;;;;;25.30;17.40;;;;;;;9.76;100.00;101328.25;5053254;28;20403;-43
2023/03/21 04:49:59;;;;;;;24.73;16.90;;;;;;;9.77;100.00;101332.66;5053782;28;20021;-44
2023/03/21 04:52:25;;;;;;;23.25;16.55;;;;;;;9.79;100.00;101332.34;5046472;28;20017;-43
2023/03/21 04:54:50;;;;;;;24.98;16.67;;;;;;;9.79;100.00;101322.16;5053742;28;20036;-43
2023/03/21 04:57:16;;;;;;;24.38;16.77;;;;;;;9.78;100.00;101323.25;5053861;28;20437;-43
2023/03/21 04:59:41;;;;;;;23.98;16.55;;;;;;;9.78;100.00;101320.50;5054202;28;20021;-44
2023/03/21 05:02:06;;;;;;;25.92;16.30;;;;;;;9.79;100.00;101319.38;5054013;28;20029;-44
2023/03/21 05:04:31;;;;;;;25.45;16.85;;;;;;;9.80;99.43;101317.44;5053828;28;20036;-44
2023/03/21 05:06:57;;;;;;;24.13;16.60;;;;;;;9.81;99.95;101313.56;5053774;28;20384;-43
2023/03/21 05:09:23;;;;;;;25.40;16.27;;;;;;;9.84;100.00;101315.75;5053585;28;20033;-44
2023/03/21 05:11:49;;;;;;;25.98;15.95;;;;;;;9.85;99.65;101311.88;5054050;28;20373;-44
2023/03/21 05:14:18;;;;;;;23.45;16.42;;;;;;;9.79;99.40;101310.25;5053868;28;20098;-44
2023/03/21 05:16:47;;;;;;;25.30;16.45;;;;;;;9.85;99.06;101314.63;5053804;28;20400;-44
2023/03/21 05:19:14;;;;;;;24.90;16.48;;;;;;;9.88;99.45;101313.22;5052432;28;20383;-44
2023/03/21 05:21:40;;;;;;;23.02;16.63;;;;;;;9.85;98.94;101306.34;5053381;28;20060;-44
2023/03/21 05:24:12;;;;;;;27.13;16.77;;;;;;;9.88;98.95;101313.22;5053612;28;20075;-43
2023/03/21 05:26:39;;;;;;;23.48;16.05;;;;;;;9.88;99.18;101307.69;5052941;28;20021;-43
2023/03/21 05:29:04;;;;;;;25.45;16.42;;;;;;;9.86;98.37;101307.16;5053411;28;20025;-44
2023/03/21 05:31:30;;;;;;;23.90;16.15;;;;;;;9.83;98.55;101308.56;5052944;28;20568;-44
2023/03/21 05:33:55;;;;;;;26.08;16.90;;;;;;;9.88;99.23;101313.22;5052851;28;20079;-43
2023/03/21 05:36:21;;;;;;;25.10;16.65;;;;;;;9.88;98.35;101313.22;5051913;28;20043;-44
2023/03/21 05:38:46;;;;;;;24.52;16.40;;;;;;;9.85;98.42;101309.09;5053261;28;20036;-44
2023/03/21 05:41:13;;;;;;;24.95;16.75;;;;;;;9.87;98.92;101309.63;5053102;28;20551;-43
2023/03/21 05:43:38;;;;;;;24.67;16.38;;;;;;;9.83;98.38;101303.03;5052789;28;20032;-44
2023/03/21 05:46:04;;;;;;;24.83;16.80;;;;;;;9.84;98.30;101299.97;5052234;28;20020;-43
2023/03/21 05:48:29;;;;;;;24.98;16.98;;;;;;;9.87;98.24;101309.63;5052667;28;20059;-44
2023/03/21 05:50:55;;;;;;;23.95;16.38;;;;;;;9.88;98.21;101307.69;5044274;28;20021;-44
2023/03/21 05:53:20;;;;;;;27.30;17.48;;;;;;;9.86;98.20;101307.16;5052908;28;20539;-44
2023/03/21 05:55:46;;;;;;;24.00;17.48;;;;;;;9.83;98.20;101306.63;5052732;28;20056;-44
2023/03/21 05:58:11;;;;;;;24.67;16.63;;;;;;;9.84;98.10;101313.78;5046880;28;20091;-44
2023/03/21 06:00:37;;;;;;;25.08;17.13;;;;;;;9.84;98.39;101311.03;5052730;28;20033;-45
2023/03/21 06:03:02;;;;;;;25.00;16.95;;;;;;;9.82;98.50;101298.63;5044958;28;20059;-44
2023/03/21 06:05:28;;;;;;;24.58;16.08;;;;;;;9.82;98.08;101304.97;5041009;28;20075;-44
2023/03/21 06:07:53;;;;;;;24.23;16.90;;;;;;;9.82;98.33;101304.97;5032882;28;20469;-44
2023/03/21 06:10:19;;;;;;;25.77;16.85;;;;;;;9.81;98.31;101303.34;5032787;28;20088;-44
2023/03/21 06:12:44;;;;;;;25.60;16.73;;;;;;;9.82;98.33;101301.38;5033333;28;20033;-45
2023/03/21 06:15:10;;;;;;;23.90;16.33;;;;;;;9.83;98.11;101303.03;5032878;28;20375;-44
2023/03/21 06:17:35;;;;;;;23.02;15.55;;;;;;;9.84;98.45;101301.94;5032533;28;20028;-44
2023/03/21 06:20:02;;;;;;;24.50;16.13;;;;;;;9.89;98.11;101298.28;5043210;28;20121;-44
2023/03/21 06:22:27;;;;;;;25.55;16.05;;;;;;;9.90;97.78;101305.47;5052848;28;20021;-43
2023/03/21 06:24:52;;;;;;;24.00;16.70;;;;;;;9.91;98.50;101307.94;5052663;28;20398;-44
2023/03/21 06:27:18;;;;;;;23.13;15.82;;;;;;;9.91;98.23;101307.13;5052098;28;20033;-44
2023/03/21 06:29:44;;;;;;;25.27;16.30;;;;;;;9.94;98.05;101310.13;5060627;28;20039;-43
2023/03/21 06:32:10;;;;;;;24.60;16.27;;;;;;;9.98;98.52;101310.38;5072366;28;20081;-43
2023/03/21 06:34:35;;;;;;;21.60;15.57;;;;;;;10.00;97.94;101310.91;5072284;28;20044;-44
2023/03/21 06:37:00;;;;;;;23.95;15.68;;;;;;;10.01;98.25;101312.56;5071027;28;20448;-44
2023/03/21 06:39:26;;;;;;;24.25;16.10;;;;;;;10.07;97.60;101310.56;5056596;28;20033;-44
2023/03/21 06:41:51;;;;;;;23.65;15.98;;;;;;;10.07;97.88;101316.91;5032432;28;20122;-44
2023/03/21 06:44:16;;;;;;;22.85;15.85;;;;;;;10.08;97.57;101314.97;5031031;28;20025;-46
2023/03/21 06:46:42;;;;;;;25.13;16.25;;;;;;;10.07;97.75;101316.91;5024674;28;20061;-44
2023/03/21 06:49:07;;;;;;;23.13;15.60;;;;;;;10.04;97.67;101308.38;5032310;28;20040;-44
2023/03/21 06:51:32;;;;;;;23.95;15.23;;;;;;;10.04;98.30;101313.91;5032241;28;20085;-45
2023/03/21 06:53:58;;;;;;;23.55;15.68;;;;;;;10.03;98.05;101313.06;5032152;28;20029;-44
2023/03/21 06:56:23;;;;;;;22.40;15.25;;;;;;;10.04;98.54;101313.91;5031736;28;20029;-44
2023/03/21 06:58:48;;;;;;;22.48;15.40;;;;;;;10.05;98.68;101315.56;5030761;28;20039;-44
2023/03/21 07:01:14;;;;;;;23.67;15.73;;;;;;;10.04;99.25;101324.97;5032022;28;20480;-46
2023/03/21 07:03:39;;;;;;;24.17;15.73;;;;;;;10.03;99.55;101315.03;5029507;28;20025;-44
2023/03/21 07:06:10;;;;;;;22.77;14.70;;;;;;;10.07;99.88;101319.69;5030221;28;20109;-45
2023/03/21 07:08:37;;;;;;;23.63;15.65;;;;;;;10.16;100.00;101317.09;5031595;28;20087;-44
2023/03/21 07:11:02;;;;;;;22.77;15.07;;;;;;;10.21;100.00;101308.75;5031400;28;20095;-44
2023/03/21 07:13:28;;;;;;;24.85;15.15;;;;;;;10.24;100.00;101310.94;5030425;28;20026;-45
2023/03/21 07:15:53;;;;;;;23.42;15.35;;;;;;;10.30;100.00;101323.59;5031913;28;20350;-45
2023/03/21 07:18:19;;;;;;;23.55;15.07;;;;;;;10.35;100.00;101327.41;5031912;28;20049;-43
2023/03/21 07:20:49;;;;;;;25.48;14.98;;;;;;;10.36;100.00;101329.91;5031735;28;20451;-43
2023/03/21 07:23:20;;;;;;;24.77;15.13;;;;;;;10.38;100.00;101330.47;5029600;28;20041;-44
2023/03/21 07:25:49;;;;;;;23.00;15.15;;;;;;;10.41;100.00;101337.34;5031274;28;20033;-45
2023/03/21 07:28:15;;;;;;;24.20;14.77;;;;;;;10.39;100.00;101336.81;5030245;28;20072;-44
2023/03/21 07:30:41;;;;;;;24.00;14.93;;;;;;;10.37;100.00;101337.13;5030017;28;20076;-44
2023/03/21 07:33:07;;;;;;;22.58;14.63;;;;;;;10.38;100.00;101336.00;5029842;28;20485;-44
2023/03/21 07:35:32;;;;;;;20.45;14.35;;;;;;;10.43;100.00;101326.81;5028498;28;20080;-43
2023/03/21 07:37:58;;;;;;;22.05;14.70;;;;;;;10.46;100.00;101331.75;5029498;28;20359;-45
2023/03/21 07:40:23;;;;;;;22.90;14.88;;;;;;;10.47;100.00;101336.16;5029659;28;20033;-44
2023/03/21 07:42:51;;;;;;;22.70;14.80;;;;;;;10.48;100.00;101335.06;5029110;28;20057;-44
2023/03/21 07:45:20;;;;;;;23.58;14.70;;;;;;;10.50;100.00;101332.81;5031558;28;20083;-44
2023/03/21 07:47:46;;;;;;;22.08;14.75;;;;;;;10.48;100.00;101329.53;5031865;28;20083;-46
2023/03/21 07:50:12;;;;;;;24.63;15.05;;;;;;;10.51;100.00;101336.41;5043243;28;20049;-45
2023/03/21 07:52:37;;;;;;;22.60;15.07;;;;;;;10.52;100.00;101333.38;5051772;28;20143;-46
2023/03/21 07:55:03;;;;;;;23.30;15.23;;;;;;;10.52;100.00;101324.22;5051439;28;20518;-44
2023/03/21 07:57:29;;;;;;;24.20;15.05;;;;;;;10.51;100.00;101328.94;5051786;28;20043;-43
2023/03/21 07:59:54;;;;;;;22.70;14.52;;;;;;;10.57;100.00;101326.94;5046973;28;20134;-44
2023/03/21 08:02:19;;;;;;;25.00;15.00;;;;;;;10.59;100.00;101322.75;5029561;28;20033;-44
2023/03/21 08:04:45;;;;;;;24.80;14.63;;;;;;;10.63;100.00;101319.41;5029199;28;20025;-44
2023/03/21 08:07:11;;;;;;;22.27;15.02;;;;;;;10.63;100.00;101313.88;5029381;28;20029;-43
2023/03/21 08:09:36;;;;;;;23.85;15.52;;;;;;;10.67;100.00;101323.22;5029401;28;20140;-44
2023/03/21 08:12:03;;;;;;;22.98;15.43;;;;;;;10.69;100.00;101307.97;5029392;28;20021;-43
2023/03/21 08:14:29;;;;;;;24.92;16.33;;;;;;;10.71;100.00;101302.97;5030557;28;20061;-44
2023/03/21 08:16:54;;;;;;;23.42;14.57;;;;;;;10.76;100.00;101297.38;5033156;28;20136;-43
2023/03/21 08:19:20;;;;;;;26.25;15.68;;;;;;;10.81;100.00;101306.72;5031752;28;20032;-44
2023/03/21 08:21:47;;;;;;;22.40;14.57;;;;;;;10.90;100.00;101297.47;5032807;28;20195;-43
2023/03/21 08:24:12;;;;;;;22.63;15.38;;;;;;;10.93;100.00;101298.81;5039590;28;20036;-44
2023/03/21 08:26:37;;;;;;;24.00;15.70;;;;;;;10.97;100.00;101285.22;5052754;28;20041;-44
2023/03/21 08:29:03;;;;;;;22.00;15.35;;;;;;;11.01;100.00;101287.09;5052198;28;20443;-44
2023/03/21 08:31:28;;;;;;;23.83;15.75;;;;;;;11.02;100.00;101280.44;5041574;28;20036;-44
2023/03/21 08:33:54;;;;;;;25.67;15.93;;;;;;;11.05;100.00;101279.00;5039628;28;20045;-46
2023/03/21 08:36:21;;;;;;;23.75;15.93;;;;;;;11.02;100.00;101272.13;5041706;28;20112;-45
2023/03/21 08:38:47;;;;;;;22.27;15.35;;;;;;;11.07;100.00;101266.50;5041306;28;20029;-44
2023/03/21 08:41:13;;;;;;;23.40;15.68;;;;;;;11.03;100.00;101270.16;5042633;28;20079;-43
2023/03/21 08:43:39;;;;;;;25.10;15.95;;;;;;;11.06;100.00;101273.16;5035765;28;20091;-43
2023/03/21 08:46:05;;;;;;;21.70;14.88;;;;;;;11.13;99.77;101281.09;5032044;28;20025;-44
2023/03/21 08:48:30;;;;;;;24.02;15.75;;;;;;;11.16;99.73;101271.34;5032377;28;20112;-43
2023/03/21 08:50:55;;;;;;;23.48;15.48;;;;;;;11.17;99.36;101284.09;5032505;28;20384;-46
2023/03/21 08:53:20;;;;;;;24.00;15.70;;;;;;;11.20;99.32;101280.72;5032446;28;20055;-50
2023/03/21 08:55:48;;;;;;;26.00;16.08;;;;;;;11.17;98.98;101273.84;5032282;28;20037;-44
2023/03/21 08:58:13;;;;;;;24.98;15.73;;;;;;;11.23;99.45;101278.16;5032540;28;20492;-43
2023/03/21 09:00:38;;;;;;;24.85;16.20;;;;;;;11.23;99.52;101272.63;5043313;28;20039;-43
2023/03/21 09:03:03;;;;;;;23.23;16.40;;;;;;;11.14;98.72;101248.69;5040841;28;20033;-43
2023/03/21 09:05:29;;;;;;;22.25;15.40;;;;;;;11.29;98.96;101256.75;5043581;28;20031;-44
2023/03/21 09:07:54;;;;;;;23.50;15.02;;;;;;;11.26;98.94;101260.13;5051989;28;20017;-44
2023/03/21 09:10:21;;;;;;;23.15;14.90;;;;;;;11.27;98.92;101253.47;5052009;28;20041;-43
2023/03/21 09:12:48;;;;;;;23.42;14.60;;;;;;;11.26;98.43;101251.81;5043092;28;20080;-44
2023/03/21 09:15:13;;;;;;;23.45;14.88;;;;;;;11.32;98.41;101260.88;5040930;28;20060;-43
2023/03/21 09:17:43;;;;;;;22.67;14.65;;;;;;;11.33;99.69;101251.44;5042522;28;20024;-44
2023/03/21 09:20:17;;;;;;;21.98;14.85;;;;;;;11.30;99.38;101252.88;5041617;28;20049;-44
2023/03/21 09:22:47;;;;;;;22.25;14.20;;;;;;;11.34;98.65;101250.31;5040631;28;20082;-45
2023/03/21 09:25:15;;;;;;;21.20;14.25;;;;;;;11.39;98.92;101250.22;5040426;28;20073;-44
2023/03/21 09:27:42;;;;;;;21.00;13.73;;;;;;;11.47;98.36;101246.78;5040814;28;20033;-44
2023/03/21 09:30:08;;;;;;;21.48;13.60;;;;;;;11.57;97.34;101251.31;5041419;28;20030;-43
2023/03/21 09:32:34;;;;;;;21.92;14.93;;;;;;;11.57;98.69;101242.22;5040495;28;20071;-43
2023/03/21 09:34:59;;;;;;;22.52;14.80;;;;;;;11.65;98.42;101250.63;5032961;28;20025;-46
2023/03/21 09:37:25;;;;;;;23.90;15.02;;;;;;;11.65;98.42;101234.00;5031547;28;20119;-44
2023/03/21 09:39:51;;;;;;;22.50;15.05;;;;;;;11.72;98.04;101241.94;5031434;28;20033;-43
2023/03/21 09:42:29;;;;;;;22.55;15.38;;;;;;;11.77;96.82;101247.38;5031481;28;20034;-43
2023/03/21 09:45:08;;;;;;;23.13;14.93;;;;;;;11.84;96.52;101245.03;5031662;28;20469;-44
2023/03/21 09:47:48;;;;;;;21.60;14.68;;;;;;;11.84;96.24;101227.56;5031340;28;20021;-43
2023/03/21 09:50:18;;;;;;;23.00;14.43;;;;;;;11.85;96.75;101229.22;5034103;28;20041;-43
2023/03/21 09:52:53;;;;;;;24.17;14.68;;;;;;;11.89;97.41;101221.94;5041300;28;20587;-43
2023/03/21 09:55:29;;;;;;;23.08;14.07;;;;;;;11.86;95.24;101222.56;5040458;28;20037;-44
2023/03/21 09:58:25;;;;;;;21.88;13.93;;;;;;;11.82;95.23;101204.88;5031304;28;20506;-43
2023/03/21 10:00:58;;;;;;;21.65;13.85;;;;;;;11.90;95.20;101214.44;5031147;28;20044;-42
2023/03/21 10:03:29;;;;;;;23.80;14.20;;;;;;;11.90;95.06;101214.44;5037298;28;20028;-42
2023/03/21 10:05:57;;;;;;;21.80;14.40;;;;;;;11.93;95.06;101214.66;5050864;28;20047;-43
2023/03/21 10:08:45;;;;;;;21.30;13.93;;;;;;;11.94;95.34;101207.16;5050874;28;20037;-43
2023/03/21 10:11:18;;;;;;;22.52;14.60;;;;;;;11.97;94.31;101212.09;5050797;28;20021;-46
2023/03/21 10:13:49;;;;;;;20.88;13.38;;;;;;;12.02;93.82;101210.06;5051104;28;20033;-43
2023/03/21 10:16:20;;;;;;;21.60;13.95;;;;;;;12.04;94.56;101204.22;5050817;28;20100;-43
2023/03/21 10:18:47;;;;;;;20.75;13.73;;;;;;;12.04;93.78;101198.69;5050367;28;20040;-43
2023/03/21 10:21:20;;;;;;;23.40;14.10;;;;;;;12.02;94.25;101195.41;5050511;28;20064;-43
2023/03/21 10:23:48;;;;;;;23.98;14.23;;;;;;;12.15;93.26;101210.38;5050768;28;20028;-43
2023/03/21 10:26:13;;;;;;;21.02;13.80;;;;;;;12.20;93.17;101201.16;5050369;28;20033;-43
2023/03/21 10:28:40;;;;;;;21.92;13.85;;;;;;;12.19;93.67;101199.50;5050351;28;20033;-43
2023/03/21 10:31:09;;;;;;;21.00;14.35;;;;;;;12.29;93.88;101197.31;5050567;28;20035;-43
2023/03/21 10:33:43;;;;;;;21.60;13.98;;;;;;;12.31;93.48;101195.06;5050823;28;20033;-43
2023/03/21 10:36:15;;;;;;;22.30;14.98;;;;;;;12.36;94.19;101193.34;5050470;28;20040;-43
2023/03/21 10:38:45;;;;;;;21.00;14.27;;;;;;;12.36;92.52;101185.00;5049942;28;20024;-45
2023/03/21 10:41:10;;;;;;;21.30;13.90;;;;;;;12.49;91.79;101189.69;5050547;28;20025;-44
2023/03/21 10:43:39;;;;;;;20.90;13.45;;;;;;;12.55;90.48;101184.88;5048011;28;20051;-44
2023/03/21 10:46:12;;;;;;;22.52;13.80;;;;;;;12.68;90.60;101189.56;5050019;28;20025;-43
2023/03/21 10:48:40;;;;;;;21.55;13.95;;;;;;;12.75;90.28;101189.16;5050440;28;20560;-44
2023/03/21 10:51:08;;;;;;;20.70;13.40;;;;;;;12.76;89.69;101188.00;5049526;28;20024;-43
2023/03/21 10:53:46;;;;;;;21.13;13.98;;;;;;;12.85;90.18;101197.22;5040091;28;20026;-44
2023/03/21 10:56:11;;;;;;;22.27;13.35;;;;;;;12.88;88.46;101202.16;5039831;28;20511;-43
2023/03/21 10:58:45;;;;;;;20.30;13.13;;;;;;;12.85;89.33;101186.13;5040893;28;20056;-43
2023/03/21 11:01:15;;;;;;;20.63;12.82;;;;;;;12.90;88.35;101182.41;5031702;28;20063;-44
2023/03/21 11:03:45;;;;;;;21.92;13.63;;;;;;;12.90;86.48;101186.00;5032409;28;20511;-43
2023/03/21 11:06:22;;;;;;;20.15;13.23;;;;;;;12.95;86.60;101177.53;5049961;28;20020;-44
2023/03/21 11:08:52;;;;;;;20.42;13.15;;;;;;;13.00;86.73;101193.25;5048782;28;20123;-44
2023/03/21 11:11:23;;;;;;;20.30;13.02;;;;;;;13.05;87.96;101182.06;5049913;28;20112;-44
2023/03/21 11:13:59;;;;;;;21.15;13.95;;;;;;;13.08;87.80;101189.72;5048741;28;20411;-45
2023/03/21 11:16:34;;;;;;;20.25;12.60;;;;;;;13.09;86.65;101176.69;5050238;28;20017;-45